Latest Weather Observations for Bedout Island

IDW60801

Issued at 7:05 pm WST Friday 31 October 2014 (issued every 30 minutes, with the page automatically refreshed every 10 minutes)

About weather observations | Map of weather stations | Latest weather observations for WA | Other Formats
Station Details ID: 004100 Name: BEDOUT ISLAND Lat: -19.59 Lon: 119.10 Height: 8.6 m
Data from the previous 72 hours. | See also: Recent months for locations in Western Australia
Date/Time
WST
Temp
°C
App
Temp
°C
Dew
Point
Rel
Hum
%
Delta-T
°C
Wind Press
QNH
hPa
Press
MSL
hPa
Rain
since 9 am
mm
Dir
 
Spd
km/h
Gust
km/h
Spd
kts
Gust
kts
31/07:00pm 27.4 26.0 22.3 73 3.4 W 33 37 18 20 1008.1 - -
31/06:30pm 27.3 26.2 22.5 75 3.2 W 32 37 17 20 1007.8 - -
31/06:00pm 27.5 26.5 22.7 75 3.3 W 32 35 17 19 1007.4 1007.3 -
31/05:30pm 28.0 27.1 23.1 74 3.3 W 33 37 18 20 1007.2 - -
31/05:00pm 28.4 27.1 23.1 73 3.6 W 35 39 19 21 1007.0 - -
31/04:30pm 29.4 28.7 23.6 71 4.0 W 33 37 18 20 1006.8 - -
31/04:00pm 30.1 30.4 23.0 65 4.9 WNW 26 32 14 17 1006.8 - -
31/03:30pm 30.5 30.6 23.2 65 5.0 W 28 32 15 17 1006.9 - -
31/03:00pm 30.9 30.4 23.5 64 5.1 W 32 39 17 21 1006.9 1006.8 -
31/02:30pm 30.7 31.3 24.1 68 4.6 W 28 32 15 17 1007.0 - -
31/02:00pm 30.0 30.5 23.9 70 4.2 W 28 32 15 17 1007.2 - -
31/01:30pm 29.9 29.6 23.8 70 4.2 W 32 35 17 19 1007.5 - -
31/01:00pm 30.1 30.5 23.8 69 4.4 W 28 32 15 17 1007.8 - -
31/12:30pm 31.9 32.7 24.5 65 5.2 W 28 30 15 16 1008.0 - -
31/12:00pm 31.8 32.0 24.1 63 5.4 W 30 33 16 18 1008.5 1008.4 -
31/11:30am 31.0 32.1 23.6 64 5.1 W 24 32 13 17 1008.8 - -
31/11:00am 31.2 32.9 24.1 66 4.9 W 22 28 12 15 1009.1 - -
31/10:30am 32.9 35.6 24.1 60 6.2 W 17 20 9 11 1009.2 - -
31/10:00am 32.1 34.5 24.2 63 5.5 WSW 19 20 10 11 1009.5 - -
31/09:30am 32.4 35.0 23.9 61 5.9 WSW 17 20 9 11 1009.6 - -
31/09:00am 32.2 34.7 24.5 64 5.4 SW 19 20 10 11 1009.6 1009.5 -
31/08:30am 31.2 33.6 24.3 66 4.8 SW 19 20 10 11 1009.5 - -
31/08:00am 31.0 33.3 24.1 66 4.8 SW 19 22 10 12 1009.3 - -
31/07:30am 29.1 31.1 24.0 74 3.5 SW 20 20 11 11 1009.1 - -
31/07:00am 28.9 31.2 24.5 77 3.1 SW 20 24 11 13 1008.9 - -
31/06:30am 28.1 29.4 24.1 79 2.8 SW 24 28 13 15 1008.5 - -
31/06:00am 27.4 28.2 23.8 81 2.5 SW 26 28 14 15 1008.1 1008.0 -
31/05:30am 27.0 27.7 23.7 82 2.3 SW 26 28 14 15 1007.8 - -
31/05:00am 27.0 27.4 23.7 82 2.3 WSW 28 32 15 17 1007.3 - -
31/04:30am 27.0 27.0 23.7 82 2.3 WSW 30 33 16 18 1007.0 - -
31/04:00am 27.0 27.1 23.9 83 2.1 WSW 30 33 16 18 1006.8 - -
31/03:30am 27.0 27.0 23.7 82 2.3 WSW 30 33 16 18 1006.6 - -
31/03:00am 27.0 26.6 23.7 82 2.3 WSW 32 35 17 19 1006.4 1006.3 -
31/02:30am 27.0 26.6 23.7 82 2.3 WSW 32 39 17 21 1006.4 - -
31/02:00am 26.9 26.1 23.4 81 2.4 W 33 37 18 20 1006.3 - -
31/01:30am 26.9 26.3 23.4 81 2.4 W 32 35 17 19 1006.6 - -
31/01:00am 26.9 26.2 23.2 80 2.5 W 32 35 17 19 1006.9 - -
31/12:30am 26.9 25.8 22.9 79 2.7 W 33 37 18 20 1007.1 - -
31/12:00am 27.0 26.0 23.0 79 2.7 W 33 37 18 20 1007.4 1007.3 -
 
Date/Time
WST
Temp
°C
App
Temp
°C
Dew
Point
Rel
Hum
%
Delta-T
°C
Wind Press
QNH
hPa
Press
MSL
hPa
Rain
since 9 am
mm
Dir
 
Spd
km/h
Gust
km/h
Spd
kts
Gust
kts
30/11:30pm 27.0 26.2 23.0 79 2.7 W 32 37 17 20 1007.7 - -
30/11:00pm 26.9 26.4 22.9 79 2.7 W 30 33 16 18 1008.2 - -
30/10:30pm 27.0 26.1 22.8 78 2.8 W 32 35 17 19 1008.4 - -
30/10:00pm 27.0 26.4 22.6 77 3.0 W 30 33 16 18 1008.7 - -
30/09:30pm 26.9 26.6 22.5 77 3.0 W 28 32 15 17 1008.7 - -
30/09:00pm 27.1 26.1 22.7 77 3.0 W 32 35 17 19 1008.5 1008.4 -
30/08:30pm 27.1 26.5 22.7 77 3.0 W 30 33 16 18 1008.3 - -
30/08:00pm 27.3 26.7 22.7 76 3.1 W 30 33 16 18 1008.2 - -
30/07:30pm 27.3 26.4 22.9 77 3.0 W 32 35 17 19 1007.9 - -
30/07:00pm 27.4 26.6 23.0 77 3.0 W 32 35 17 19 1007.6 - -
30/06:30pm 27.5 26.7 23.1 77 3.0 W 32 35 17 19 1007.2 - -
30/06:00pm 27.8 27.1 23.2 76 3.1 W 32 35 17 19 1006.9 1006.8 -
30/05:30pm 28.4 27.6 23.3 74 3.5 W 33 37 18 20 1006.6 - -
30/05:00pm 29.2 28.7 23.6 72 3.9 W 32 35 17 19 1006.6 - -
30/04:30pm 29.6 29.4 24.0 72 3.9 W 32 37 17 20 1006.5 - -
30/04:00pm 30.1 - 23.8 69 4.4 - - - - - 1006.5 - -
30/03:30pm 30.5 30.6 23.9 68 4.6 WNW 30 33 16 18 1006.6 - -
30/03:00pm 30.8 30.7 24.2 68 4.6 WNW 32 35 17 19 1006.7 1006.6 -
30/02:30pm 31.4 32.1 24.3 66 5.0 WNW 28 33 15 18 1006.9 - -
30/02:00pm 31.0 31.9 24.6 68 4.5 WNW 28 32 15 17 1007.1 - -
30/01:30pm 31.8 33.3 24.9 67 4.9 WNW 26 30 14 16 1007.4 - -
30/01:00pm 31.9 33.8 25.0 67 4.9 WNW 24 30 13 16 1007.8 - -
30/12:30pm 31.4 33.3 25.0 69 4.5 W 24 28 13 15 1008.2 - -
30/12:00pm 31.2 33.2 25.1 70 4.3 W 24 28 13 15 1008.6 1008.5 -
30/11:30am 31.2 33.2 25.1 70 4.3 W 24 28 13 15 1009.1 - -
30/11:00am 31.2 34.0 25.3 71 4.2 W 20 24 11 13 1009.4 - -
30/10:30am 31.5 34.4 25.4 70 4.3 W 20 24 11 13 1009.7 - -
30/10:00am 31.0 33.6 24.9 70 4.3 W 20 24 11 13 1009.9 - -
30/09:30am 29.9 32.7 25.2 76 3.3 W 20 22 11 12 1010.2 - -
30/09:00am 29.6 31.8 24.2 73 3.8 W 20 22 11 12 1010.3 1010.2 -
30/08:30am 29.8 32.8 24.7 74 3.6 W 17 20 9 11 1010.4 - -
30/08:00am 28.5 30.7 23.9 76 3.2 W 19 20 10 11 1010.4 - -
30/07:30am 28.6 31.2 24.6 79 2.8 W 19 20 10 11 1010.3 - -
30/07:00am 27.6 30.5 24.4 83 2.2 W 17 19 9 10 1010.2 - -
30/06:30am 26.7 28.7 24.0 85 1.9 W 20 22 11 12 1010.0 - -
30/06:00am 26.2 27.7 23.7 86 1.7 W 22 24 12 13 1009.6 1009.5 -
30/05:30am 26.0 26.9 23.3 85 1.8 W 24 28 13 15 1009.3 - -
30/05:00am 26.1 26.5 23.2 84 2.0 W 26 30 14 16 1009.0 - -
30/04:30am 26.0 25.9 22.9 83 2.1 W 28 33 15 18 1008.9 - -
30/04:00am 26.0 25.5 22.9 83 2.1 W 30 33 16 18 1008.8 - -
30/03:30am 25.9 25.4 22.8 83 2.1 W 30 35 16 19 1008.6 - -
30/03:00am 25.9 25.7 23.4 86 1.7 W 30 35 16 19 1008.6 1008.5 -
30/02:30am 25.7 25.7 23.7 89 1.4 W 30 33 16 18 1008.5 - -
30/02:00am 25.6 26.1 24.0 91 1.1 WNW 28 32 15 17 1008.8 - -
30/01:30am 25.6 26.4 24.4 93 0.8 WNW 28 32 15 17 1009.0 - -
30/01:00am 25.7 26.3 24.7 94 0.7 WNW 30 33 16 18 1009.2 - -
30/12:30am 25.5 26.0 24.6 95 0.6 WNW 30 33 16 18 1009.4 - -
30/12:00am 25.5 26.5 24.8 96 0.5 WNW 28 33 15 18 1009.7 1009.6 -
 
Date/Time
WST
Temp
°C
App
Temp
°C
Dew
Point
Rel
Hum
%
Delta-T
°C
Wind Press
QNH
hPa
Press
MSL
hPa
Rain
since 9 am
mm
Dir
 
Spd
km/h
Gust
km/h
Spd
kts
Gust
kts
29/11:30pm 25.6 27.1 24.9 96 0.5 WNW 26 30 14 16 1010.1 - -
29/11:00pm 25.6 27.1 24.9 96 0.5 WNW 26 30 14 16 1010.3 - -
29/10:30pm 25.6 26.9 24.7 95 0.6 WNW 26 30 14 16 1010.7 - -
29/10:00pm 25.6 26.9 24.7 95 0.6 WNW 26 30 14 16 1010.9 - -
29/09:30pm 25.5 26.4 24.6 95 0.6 WNW 28 30 15 16 1010.8 - -
29/09:00pm 25.5 27.2 24.6 95 0.6 WNW 24 28 13 15 1010.8 1010.7 -
29/08:30pm 25.5 27.1 24.5 94 0.7 NW 24 28 13 15 1010.8 - -
29/08:00pm 25.6 27.5 24.4 93 0.8 NW 22 26 12 14 1010.8 - -
29/07:30pm 25.7 27.7 24.5 93 0.8 NW 22 24 12 13 1010.6 - -
29/07:00pm 25.9 27.9 24.5 92 1.0 WNW 22 24 12 13 1010.4 - -
29/06:30pm 26.1 27.9 24.3 90 1.2 WNW 22 26 12 14 1010.3 - -
29/06:00pm 26.4 28.1 24.1 87 1.6 WNW 22 26 12 14 1009.9 1009.8 -
29/05:00pm 27.8 28.8 24.2 81 2.5 WNW 26 30 14 16 1009.6 - -
29/04:30pm 28.3 29.3 24.1 78 2.9 WNW 26 30 14 16 1009.6 - -
29/04:00pm 29.4 30.2 24.5 75 3.4 WNW 28 32 15 17 1009.6 - -
29/03:30pm 29.2 30.5 24.1 74 3.5 WNW 24 28 13 15 1009.7 - -
29/03:00pm 29.9 31.5 24.5 73 3.8 WNW 24 28 13 15 1009.8 1009.7 -
29/02:30pm 29.6 30.4 23.8 71 4.0 WNW 26 30 14 16 1010.1 - -
29/02:00pm 30.1 31.4 24.0 70 4.2 WNW 24 30 13 16 1010.2 - -
29/01:30pm 29.9 31.5 23.8 70 4.2 WNW 22 28 12 15 1010.6 - -
29/01:00pm 30.9 32.7 24.8 70 4.3 WNW 24 28 13 15 1010.7 - -
29/12:30pm 30.4 32.1 24.1 69 4.4 WNW 22 26 12 14 1011.2 - -
29/12:00pm 29.9 32.0 24.1 71 4.0 WNW 20 24 11 13 1011.5 1011.4 -
29/11:30am 29.8 31.7 23.7 70 4.2 NW 20 24 11 13 1011.5 - -
29/11:00am 30.2 32.9 24.1 70 4.2 NW 17 20 9 11 1011.9 - -
29/10:30am 29.8 32.4 24.0 71 4.0 NW 17 20 9 11 1011.9 - -
29/10:00am 29.7 32.4 24.1 72 3.9 NW 17 22 9 12 1012.0 - -
29/09:30am 29.5 33.1 24.4 74 3.6 NNW 13 15 7 8 1012.1 - -
29/09:00am 28.0 31.1 23.6 77 3.0 NNW 13 17 7 9 1012.3 1012.2 -
29/08:30am 28.2 32.2 24.4 80 2.6 NNW 11 15 6 8 1012.1 - -
29/08:00am 27.9 32.1 24.7 83 2.2 NNW 11 15 6 8 1011.6 - -
29/07:30am 27.4 32.5 25.0 87 1.7 NNE 7 9 4 5 1011.7 - -
29/07:00am 26.6 31.6 24.8 90 1.3 NNE 7 9 4 5 1011.5 - -
29/06:30am 26.0 30.1 24.6 92 1.0 NE 11 13 6 7 1011.2 - -
29/06:00am 25.4 28.5 24.2 93 0.8 ENE 15 17 8 9 1011.5 1011.4 -
29/05:30am 24.7 28.5 23.5 93 0.8 E 9 11 5 6 1011.3 - -
29/05:00am 24.8 28.3 23.6 93 0.8 SE 11 15 6 8 1011.6 - -
29/04:30am 24.5 28.1 23.1 92 0.9 SW 9 11 5 6 1011.1 - -
29/04:00am 24.9 27.7 23.7 93 0.8 SW 15 17 8 9 1011.3 - -
29/03:30am 25.1 27.4 24.1 94 0.7 WSW 19 22 10 12 1010.8 - -
29/03:00am 25.1 27.4 24.1 94 0.7 WSW 19 22 10 12 1010.8 1010.7 -
29/02:30am 25.2 28.4 24.3 95 0.6 WSW 15 19 8 10 1011.2 - -
29/02:00am 25.4 28.4 24.7 96 0.5 SW 17 19 9 10 1011.4 - -
29/01:30am 25.4 28.4 24.7 96 0.5 W 17 20 9 11 1011.4 - -
29/01:00am 25.3 28.0 24.8 97 0.3 W 19 22 10 12 1011.1 - -
29/12:30am 25.6 27.9 25.1 97 0.3 WNW 22 24 12 13 1011.0 - -
29/12:00am 25.5 27.8 25.0 97 0.3 NW 22 26 12 14 1011.0 1010.9 -
 
Date/Time
WST
Temp
°C
App
Temp
°C
Dew
Point
Rel
Hum
%
Delta-T
°C
Wind Press
QNH
hPa
Press
MSL
hPa
Rain
since 9 am
mm
Dir
 
Spd
km/h
Gust
km/h
Spd
kts
Gust
kts
28/11:30pm 25.6 27.2 25.1 97 0.3 NW 26 32 14 17 1011.1 - -
28/11:00pm 25.5 27.0 25.0 97 0.3 NW 26 30 14 16 1011.0 - -
28/10:30pm 25.6 27.9 25.1 97 0.3 NW 22 26 12 14 1011.1 - -
28/10:00pm 25.7 27.6 25.0 96 0.5 NW 24 28 13 15 1010.8 - -
28/09:30pm 25.7 27.6 25.0 96 0.5 NW 24 26 13 14 1010.7 - -
28/09:00pm 25.6 27.7 24.7 95 0.6 NNW 22 26 12 14 1010.8 1010.7 -
28/08:30pm 25.7 27.4 24.7 94 0.7 NW 24 28 13 15 1010.4 - -
28/08:00pm 25.8 27.8 24.6 93 0.8 NW 22 26 12 14 1010.1 - -
28/07:30pm 26.0 28.4 24.6 92 1.0 NNW 20 24 11 13 1010.0 - -

Other Formats:

Comma delimited format used in spreadsheet applications
http://www.bom.gov.au/fwo/IDW60801/IDW60801.94310.axf

JavaScript Object Notation format (JSON) in row-major order
http://www.bom.gov.au/fwo/IDW60801/IDW60801.94310.json